尖沙咀 中環 長洲 西貢 太平山
風場分佈
雷達圖

衛星雲圖
Δp時間序列

香港空氣質素
2018-09-22 16:00

監測站AQHIAQI
中西區358
觀塘361
大埔357
東涌365
東區3-
沙田360
將軍澳241
塔門--
元朗364
屯門373
葵涌365
深水埗360
荃灣363
銅鑼灣482
中環375
旺角458

大氣穩定度指數
22/09/2018 00:00 UTC

K指數25.90 C
Total Totals指數36.80 C
抬升指數-1.79 C
沙瓦特指數5.62 C
強對流天氣
威脅指數
154.96
對流有效位能1024.88 J/kg
總可降水量46.57 mm
穩定     不穩定

詳情



香港現時天氣


氣溫 | 相對濕度 | 酷熱指數 | 最高氣溫
最低氣溫 | 十分鐘風 | 十分鐘陣風 | 雨量 | 氣壓
一小時風 | 一小時陣風 | 能見度
22/09/2018 17:20 氣溫(攝氏)
石崗32.1
打鼓嶺31.7
上水31.6
深水埗30.6
黃大仙30.5
赤鱲角30.4
香港天文台30.4
跑馬地30.2
沙田30.1
荃灣城門谷30.1
元朗公園30.1
京士柏30.0
大埔30.0
濕地公園29.9
九龍城29.8
觀塘29.8
流浮山29.8
長洲29.7
屯門29.7
黃竹坑29.5
將軍澳29.5
赤柱29.5
北潭涌29.5
香港公園29.4
坪洲29.3
大美督29.2
西貢29.2
荃灣可觀29.1
青衣29.1
滘西洲28.7
啟德跑道公園28.6
筲箕灣28.6
橫瀾島28.6
山頂26.0
大老山24.1
大帽山22.1
香港天氣預報
22/09/2018 16:45 發出

影響華南沿岸的副熱帶高壓脊正逐漸減弱。同時, 驟雨正影響廣東內陸。

在下午四時,強烈熱帶風暴潭美集結在雅蒲島以北 約790公里,預料向西北偏西移動,時速約22公里, 橫過西北太平洋。

本港地區今晚及明日天氣預測

漸轉多雲,有幾陣驟雨。明日日間短暫時間有陽光 ,氣溫介乎27至31度。吹輕微至和緩偏東風。

展望:中秋節及翌日大致多雲,有幾陣驟雨。


香港九天天氣預報
22/09/2018 16:30 發出

九天天氣預報

隨著高空反氣旋減弱,未來一兩日華南沿岸雲量增 多。預料受偏東氣流影響,下週一及週二該區有幾 陣驟雨。一股乾燥大陸氣流會在下週中後期影響華 南,該區天色好轉。熱帶氣旋潭美會在未來數天橫 過西北太平洋及逐漸增強,大致移向呂宋海峽以東 海域。

九月二十三日(星期日)
東風2至3級。 大致多雲,短暫時間有陽光,有幾陣驟雨。
氣溫:27至31度。 相對濕度:百分之70至95。

九月二十四日(星期一)
東至東北風3至4級。 大致多雲,短暫時間有陽光,有幾陣驟雨。稍後局部地區有雷暴。
氣溫:26至30度。 相對濕度:百分之75至95。

九月二十五日(星期二)
東風4至5級。 大致多雲,初時有幾陣驟雨,局部地區有雷暴。稍後短暫時間有陽光。
氣溫:25至29度。 相對濕度:百分之70至95。

九月二十六日(星期三)
東風4級,初時間中5級。 短暫時間有陽光。初時有一兩陣微雨。
氣溫:25至30度。 相對濕度:百分之65至90。

九月二十七日(星期四)
北至東北風3級。 部分時間有陽光。
氣溫:25至31度。 相對濕度:百分之60至90。

九月二十八日(星期五)
北風3至4級。 大致天晴。日間乾燥。
氣溫:25至32度。 相對濕度:百分之55至85。

九月二十九日(星期六)
北風3至4級。 部分時間有陽光。日間酷熱及乾燥。
氣溫:26至33度。 相對濕度:百分之50至85。

九月三十日(星期日)
北至西北風3至4級。 部分時間有陽光,稍後有一兩陣驟雨。
氣溫:26至32度。 相對濕度:百分之55至85。

十月一日(星期一)
北風3至4級。 部分時間有陽光,有幾陣驟雨。
氣溫:26至32度。 相對濕度:百分之60至85。


主要機場天氣及預報
VHHH 220900Z 05007KT 020V090 9999 FEW024 31/24 Q1011 NOSIG VHHH 220830Z 28008KT 240V320 9999 FEW024 31/23 Q1011 NOSIG
TAF VHHH 220500Z 2206/2312 27010KT 9999 FEW030 TX31/2206Z TX31/2306Z TN26/2222Z
BECMG 2209/2211 10010KT
TEMPO 2218/2306 VRB05KT
TEMPO 2222/2309 4000 SHRA


Facebook 專頁
天氣專欄
氣象人語
山竹迫近,請即採取防風措施


天氣商店

香港天文資料
22/09/2018

日出:0612
日落:1820
月出:1647
月落:0332
民用曙暮光:0550 1842

香港9月22日氣候平均值
天文台
氣溫:25.4-29.6 度
相對濕度:77 %
雨量:8.9 毫米
雲量:67 %
氣壓:1009.9 百帕

京士柏
日照:5.4 小時

橫瀾島
風:090/25 公里/小時

北角
海水溫度:27.3 度